sensor_id;sensor_type;location;lat;lon;timestamp;P1;durP1;ratioP1;P2;durP2;ratioP2
15944;SDS011;30172;48.832;8.732;2023-03-14T06:08:08;1.67;;;1.00;;
15944;SDS011;30172;48.832;8.732;2023-03-14T06:10:56;2.93;;;1.27;;
15944;SDS011;30172;48.832;8.732;2023-03-14T06:13:22;1.63;;;0.60;;
15944;SDS011;30172;48.832;8.732;2023-03-14T06:15:52;1.90;;;0.50;;
15944;SDS011;30172;48.832;8.732;2023-03-14T06:18:21;2.23;;;0.50;;
15944;SDS011;30172;48.832;8.732;2023-03-14T06:20:46;2.90;;;1.10;;
15944;SDS011;30172;48.832;8.732;2023-03-14T06:23:21;1.23;;;0.60;;
15944;SDS011;30172;48.832;8.732;2023-03-14T06:25:46;1.70;;;0.67;;
15944;SDS011;30172;48.832;8.732;2023-03-14T06:28:12;2.00;;;0.60;;
15944;SDS011;30172;48.832;8.732;2023-03-14T06:30:37;3.27;;;0.70;;
15944;SDS011;30172;48.832;8.732;2023-03-14T06:33:02;1.87;;;0.67;;
15944;SDS011;30172;48.832;8.732;2023-03-14T06:35:28;1.57;;;0.40;;
15944;SDS011;30172;48.832;8.732;2023-03-14T06:37:53;3.07;;;0.87;;
15944;SDS011;30172;48.832;8.732;2023-03-14T06:40:18;1.33;;;0.57;;
15944;SDS011;30172;48.832;8.732;2023-03-14T06:42:44;0.90;;;0.50;;
15944;SDS011;30172;48.832;8.732;2023-03-14T06:45:10;1.70;;;0.60;;
15944;SDS011;30172;48.832;8.732;2023-03-14T06:47:36;1.30;;;0.40;;
15944;SDS011;30172;48.832;8.732;2023-03-14T06:50:03;1.87;;;0.50;;
15944;SDS011;30172;48.832;8.732;2023-03-14T06:52:29;2.10;;;0.53;;
15944;SDS011;30172;48.832;8.732;2023-03-14T06:54:54;2.13;;;0.57;;
15944;SDS011;30172;48.832;8.732;2023-03-14T06:57:19;2.77;;;0.70;;
15944;SDS011;30172;48.832;8.732;2023-03-14T06:59:45;1.00;;;0.60;;
15944;SDS011;30172;48.832;8.732;2023-03-14T07:02:11;1.23;;;0.60;;
15944;SDS011;30172;48.832;8.732;2023-03-14T07:04:37;1.13;;;0.70;;
15944;SDS011;30172;48.832;8.732;2023-03-14T07:07:02;1.13;;;0.50;;
15944;SDS011;30172;48.832;8.732;2023-03-14T07:09:27;2.10;;;0.70;;
15944;SDS011;30172;48.832;8.732;2023-03-14T07:11:53;2.00;;;0.70;;
15944;SDS011;30172;48.832;8.732;2023-03-14T07:14:18;1.70;;;0.70;;
15944;SDS011;30172;48.832;8.732;2023-03-14T07:16:43;1.07;;;0.70;;
15944;SDS011;30172;48.832;8.732;2023-03-14T07:19:10;1.17;;;0.50;;
15944;SDS011;30172;48.832;8.732;2023-03-14T07:21:35;0.87;;;0.50;;
15944;SDS011;30172;48.832;8.732;2023-03-14T07:24:01;0.70;;;0.50;;
15944;SDS011;30172;48.832;8.732;2023-03-14T07:26:26;2.67;;;0.47;;
15944;SDS011;30172;48.832;8.732;2023-03-14T07:28:51;2.40;;;0.67;;
15944;SDS011;30172;48.832;8.732;2023-03-14T07:31:17;0.73;;;0.67;;
15944;SDS011;30172;48.832;8.732;2023-03-14T07:33:42;1.00;;;0.60;;
15944;SDS011;30172;48.832;8.732;2023-03-14T07:36:08;1.00;;;0.70;;
15944;SDS011;30172;48.832;8.732;2023-03-14T07:38:33;1.00;;;0.70;;
15944;SDS011;30172;48.832;8.732;2023-03-14T07:40:59;0.90;;;0.50;;
15944;SDS011;30172;48.832;8.732;2023-03-14T07:43:25;0.40;;;0.37;;
15944;SDS011;30172;48.832;8.732;2023-03-14T07:45:50;1.53;;;0.43;;
15944;SDS011;30172;48.832;8.732;2023-03-14T07:48:15;0.93;;;0.40;;
15944;SDS011;30172;48.832;8.732;2023-03-14T07:50:41;0.50;;;0.40;;
15944;SDS011;30172;48.832;8.732;2023-03-14T07:53:06;0.50;;;0.40;;
15944;SDS011;30172;48.832;8.732;2023-03-14T07:55:31;0.70;;;0.40;;
15944;SDS011;30172;48.832;8.732;2023-03-14T07:57:57;1.33;;;0.50;;
15944;SDS011;30172;48.832;8.732;2023-03-14T08:00:22;0.50;;;0.40;;
15944;SDS011;30172;48.832;8.732;2023-03-14T08:02:47;6.60;;;0.67;;
15944;SDS011;30172;48.832;8.732;2023-03-14T08:05:13;0.60;;;0.30;;
15944;SDS011;30172;48.832;8.732;2023-03-14T08:07:38;1.33;;;0.63;;
15944;SDS011;30172;48.832;8.732;2023-03-14T08:10:03;1.73;;;0.40;;
15944;SDS011;30172;48.832;8.732;2023-03-14T08:12:30;3.30;;;0.53;;
15944;SDS011;30172;48.832;8.732;2023-03-14T08:14:55;0.40;;;0.40;;
15944;SDS011;30172;48.832;8.732;2023-03-14T08:17:20;0.40;;;0.40;;
15944;SDS011;30172;48.832;8.732;2023-03-14T08:19:45;1.40;;;0.40;;
15944;SDS011;30172;48.832;8.732;2023-03-14T08:22:11;2.17;;;0.40;;
15944;SDS011;30172;48.832;8.732;2023-03-14T08:24:36;0.83;;;0.40;;
15944;SDS011;30172;48.832;8.732;2023-03-14T08:27:07;0.83;;;0.40;;
15944;SDS011;30172;48.832;8.732;2023-03-14T08:29:32;1.30;;;0.57;;
15944;SDS011;30172;48.832;8.732;2023-03-14T08:31:57;0.67;;;0.43;;
15944;SDS011;30172;48.832;8.732;2023-03-14T08:34:22;1.63;;;0.80;;
15944;SDS011;30172;48.832;8.732;2023-03-14T08:36:48;2.77;;;0.50;;
15944;SDS011;30172;48.832;8.732;2023-03-14T08:39:13;0.93;;;0.80;;
15944;SDS011;30172;48.832;8.732;2023-03-14T08:41:38;0.63;;;0.63;;
15944;SDS011;30172;48.832;8.732;2023-03-14T08:44:06;3.77;;;0.57;;
15944;SDS011;30172;48.832;8.732;2023-03-14T08:46:32;2.53;;;0.50;;
15944;SDS011;30172;48.832;8.732;2023-03-14T08:48:58;0.90;;;0.40;;
15944;SDS011;30172;48.832;8.732;2023-03-14T08:51:23;2.23;;;0.50;;
15944;SDS011;30172;48.832;8.732;2023-03-14T08:53:48;1.60;;;0.50;;
15944;SDS011;30172;48.832;8.732;2023-03-14T08:56:14;2.73;;;0.37;;
15944;SDS011;30172;48.832;8.732;2023-03-14T08:58:39;0.60;;;0.40;;
15944;SDS011;30172;48.832;8.732;2023-03-14T09:01:07;0.30;;;0.30;;
15944;SDS011;30172;48.832;8.732;2023-03-14T09:03:33;1.10;;;0.60;;
15944;SDS011;30172;48.832;8.732;2023-03-14T09:06:02;1.13;;;0.50;;
15944;SDS011;30172;48.832;8.732;2023-03-14T09:08:29;0.83;;;0.43;;
15944;SDS011;30172;48.832;8.732;2023-03-14T09:10:54;0.30;;;0.30;;
15944;SDS011;30172;48.832;8.732;2023-03-14T09:13:19;0.50;;;0.50;;
15944;SDS011;30172;48.832;8.732;2023-03-14T09:15:45;0.50;;;0.43;;
15944;SDS011;30172;48.832;8.732;2023-03-14T09:18:15;1.83;;;0.40;;
15944;SDS011;30172;48.832;8.732;2023-03-14T09:20:41;0.30;;;0.30;;
15944;SDS011;30172;48.832;8.732;2023-03-14T09:23:06;0.73;;;0.37;;
15944;SDS011;30172;48.832;8.732;2023-03-14T09:25:32;0.30;;;0.30;;
15944;SDS011;30172;48.832;8.732;2023-03-14T09:27:57;0.40;;;0.30;;
15944;SDS011;30172;48.832;8.732;2023-03-14T09:30:22;2.13;;;0.40;;
15944;SDS011;30172;48.832;8.732;2023-03-14T09:32:47;0.33;;;0.20;;
15944;SDS011;30172;48.832;8.732;2023-03-14T09:35:13;1.13;;;0.40;;
15944;SDS011;30172;48.832;8.732;2023-03-14T09:37:38;0.57;;;0.30;;
15944;SDS011;30172;48.832;8.732;2023-03-14T09:40:04;1.37;;;0.20;;
15944;SDS011;30172;48.832;8.732;2023-03-14T09:42:35;1.13;;;0.30;;
15944;SDS011;30172;48.832;8.732;2023-03-14T09:45:03;0.87;;;0.40;;
15944;SDS011;30172;48.832;8.732;2023-03-14T09:47:33;0.30;;;0.30;;
15944;SDS011;30172;48.832;8.732;2023-03-14T09:50:02;0.43;;;0.30;;
15944;SDS011;30172;48.832;8.732;2023-03-14T09:52:32;0.30;;;0.30;;
15944;SDS011;30172;48.832;8.732;2023-03-14T09:55:04;0.20;;;0.20;;
15944;SDS011;30172;48.832;8.732;2023-03-14T09:57:51;0.20;;;0.20;;
15944;SDS011;30172;48.832;8.732;2023-03-14T10:00:22;2.53;;;0.40;;
15944;SDS011;30172;48.832;8.732;2023-03-14T10:02:53;0.40;;;0.33;;
15944;SDS011;30172;48.832;8.732;2023-03-14T10:05:24;0.57;;;0.20;;
15944;SDS011;30172;48.832;8.732;2023-03-14T10:07:50;0.30;;;0.30;;
15944;SDS011;30172;48.832;8.732;2023-03-14T10:10:17;0.60;;;0.33;;
15944;SDS011;30172;48.832;8.732;2023-03-14T10:12:45;0.20;;;0.20;;
15944;SDS011;30172;48.832;8.732;2023-03-14T10:15:12;0.60;;;0.60;;
15944;SDS011;30172;48.832;8.732;2023-03-14T10:17:43;0.30;;;0.30;;
15944;SDS011;30172;48.832;8.732;2023-03-14T10:23:01;0.37;;;0.30;;
15944;SDS011;30172;48.832;8.732;2023-03-14T10:25:29;0.33;;;0.27;;
15944;SDS011;30172;48.832;8.732;2023-03-14T10:27:58;1.20;;;0.30;;
15944;SDS011;30172;48.832;8.732;2023-03-14T10:30:33;0.30;;;0.30;;
15944;SDS011;30172;48.832;8.732;2023-03-14T10:33:19;0.30;;;0.30;;
15944;SDS011;30172;48.832;8.732;2023-03-14T10:35:53;0.93;;;0.30;;
15944;SDS011;30172;48.832;8.732;2023-03-14T10:38:20;0.40;;;0.40;;
15944;SDS011;30172;48.832;8.732;2023-03-14T10:40:49;1.33;;;0.40;;
15944;SDS011;30172;48.832;8.732;2023-03-14T10:43:18;1.60;;;0.40;;
15944;SDS011;30172;48.832;8.732;2023-03-14T10:45:51;0.30;;;0.20;;
15944;SDS011;30172;48.832;8.732;2023-03-14T10:48:23;0.53;;;0.30;;
15944;SDS011;30172;48.832;8.732;2023-03-14T10:53:18;0.33;;;0.30;;
15944;SDS011;30172;48.832;8.732;2023-03-14T10:55:44;1.70;;;0.37;;
15944;SDS011;30172;48.832;8.732;2023-03-14T10:58:43;0.63;;;0.30;;
15944;SDS011;30172;48.832;8.732;2023-03-14T11:03:50;0.70;;;0.30;;
15944;SDS011;30172;48.832;8.732;2023-03-14T11:06:24;0.30;;;0.30;;
15944;SDS011;30172;48.832;8.732;2023-03-14T11:11:41;0.40;;;0.30;;
15944;SDS011;30172;48.832;8.732;2023-03-14T11:14:18;0.33;;;0.30;;
15944;SDS011;30172;48.832;8.732;2023-03-14T11:22:36;0.53;;;0.33;;
15944;SDS011;30172;48.832;8.732;2023-03-14T11:25:13;0.40;;;0.40;;
15944;SDS011;30172;48.832;8.732;2023-03-14T11:27:54;0.40;;;0.40;;
15944;SDS011;30172;48.832;8.732;2023-03-14T11:33:16;0.63;;;0.43;;
15944;SDS011;30172;48.832;8.732;2023-03-14T11:36:03;1.07;;;0.30;;
15944;SDS011;30172;48.832;8.732;2023-03-14T11:38:40;0.83;;;0.70;;
15944;SDS011;30172;48.832;8.732;2023-03-14T11:41:23;0.40;;;0.40;;
15944;SDS011;30172;48.832;8.732;2023-03-14T11:43:57;0.40;;;0.40;;
15944;SDS011;30172;48.832;8.732;2023-03-14T11:46:25;0.40;;;0.40;;
15944;SDS011;30172;48.832;8.732;2023-03-14T11:48:57;0.70;;;0.60;;
15944;SDS011;30172;48.832;8.732;2023-03-14T11:51:41;0.40;;;0.40;;
15944;SDS011;30172;48.832;8.732;2023-03-14T11:54:18;0.50;;;0.50;;
15944;SDS011;30172;48.832;8.732;2023-03-14T11:57:09;2.00;;;0.70;;
15944;SDS011;30172;48.832;8.732;2023-03-14T11:59:58;1.00;;;0.50;;
15944;SDS011;30172;48.832;8.732;2023-03-14T12:02:57;4.03;;;2.90;;
15944;SDS011;30172;48.832;8.732;2023-03-14T12:10:58;1.20;;;1.10;;
15944;SDS011;30172;48.832;8.732;2023-03-14T12:13:31;1.40;;;0.83;;
15944;SDS011;30172;48.832;8.732;2023-03-14T12:15:59;2.27;;;1.10;;
15944;SDS011;30172;48.832;8.732;2023-03-14T12:18:29;1.50;;;1.17;;
15944;SDS011;30172;48.832;8.732;2023-03-14T12:20:57;1.70;;;1.20;;
15944;SDS011;30172;48.832;8.732;2023-03-14T12:23:24;2.03;;;1.20;;
15944;SDS011;30172;48.832;8.732;2023-03-14T12:28:39;1.53;;;0.90;;
15944;SDS011;30172;48.832;8.732;2023-03-14T12:34:01;2.23;;;1.70;;
15944;SDS011;30172;48.832;8.732;2023-03-14T12:37:12;2.50;;;1.20;;
15944;SDS011;30172;48.832;8.732;2023-03-14T12:44:53;2.27;;;0.80;;
15944;SDS011;30172;48.832;8.732;2023-03-14T12:50:12;1.43;;;0.80;;
15944;SDS011;30172;48.832;8.732;2023-03-14T12:52:59;1.73;;;0.90;;
15944;SDS011;30172;48.832;8.732;2023-03-14T12:56:05;2.47;;;0.90;;
15944;SDS011;30172;48.832;8.732;2023-03-14T12:58:54;3.27;;;1.00;;
15944;SDS011;30172;48.832;8.732;2023-03-14T13:01:20;1.83;;;0.87;;
15944;SDS011;30172;48.832;8.732;2023-03-14T13:03:56;2.10;;;0.70;;
15944;SDS011;30172;48.832;8.732;2023-03-14T13:11:50;1.13;;;1.00;;
15944;SDS011;30172;48.832;8.732;2023-03-14T13:14:16;1.50;;;0.60;;
15944;SDS011;30172;48.832;8.732;2023-03-14T13:16:41;0.93;;;0.63;;
15944;SDS011;30172;48.832;8.732;2023-03-14T13:19:27;3.13;;;0.70;;
15944;SDS011;30172;48.832;8.732;2023-03-14T13:22:01;1.10;;;0.70;;
15944;SDS011;30172;48.832;8.732;2023-03-14T13:24:32;1.70;;;0.67;;
15944;SDS011;30172;48.832;8.732;2023-03-14T13:26:58;3.93;;;0.80;;
15944;SDS011;30172;48.832;8.732;2023-03-14T13:29:25;1.73;;;0.70;;
15944;SDS011;30172;48.832;8.732;2023-03-14T13:31:52;3.13;;;0.53;;
15944;SDS011;30172;48.832;8.732;2023-03-14T13:34:19;1.67;;;0.60;;
15944;SDS011;30172;48.832;8.732;2023-03-14T13:36:45;0.60;;;0.50;;
15944;SDS011;30172;48.832;8.732;2023-03-14T13:39:13;2.73;;;0.60;;
15944;SDS011;30172;48.832;8.732;2023-03-14T13:41:39;5.37;;;0.90;;
15944;SDS011;30172;48.832;8.732;2023-03-14T13:44:06;1.63;;;0.60;;
15944;SDS011;30172;48.832;8.732;2023-03-14T13:46:33;2.37;;;0.50;;
15944;SDS011;30172;48.832;8.732;2023-03-14T13:49:01;1.93;;;0.70;;
15944;SDS011;30172;48.832;8.732;2023-03-14T13:51:27;2.17;;;0.63;;
15944;SDS011;30172;48.832;8.732;2023-03-14T13:53:56;4.67;;;0.63;;
15944;SDS011;30172;48.832;8.732;2023-03-14T13:56:25;2.20;;;0.80;;
15944;SDS011;30172;48.832;8.732;2023-03-14T13:58:52;2.50;;;0.73;;
15944;SDS011;30172;48.832;8.732;2023-03-14T14:01:22;2.10;;;0.90;;
15944;SDS011;30172;48.832;8.732;2023-03-14T14:03:50;0.50;;;0.50;;
15944;SDS011;30172;48.832;8.732;2023-03-14T14:08:56;2.47;;;0.90;;
15944;SDS011;30172;48.832;8.732;2023-03-14T14:11:36;6.30;;;1.00;;
15944;SDS011;30172;48.832;8.732;2023-03-14T14:14:06;1.47;;;0.70;;
15944;SDS011;30172;48.832;8.732;2023-03-14T14:16:36;5.03;;;1.00;;
15944;SDS011;30172;48.832;8.732;2023-03-14T14:19:01;2.13;;;0.73;;
15944;SDS011;30172;48.832;8.732;2023-03-14T14:21:27;2.00;;;0.70;;
15944;SDS011;30172;48.832;8.732;2023-03-14T14:23:52;4.40;;;0.90;;
15944;SDS011;30172;48.832;8.732;2023-03-14T14:26:18;4.40;;;0.90;;
15944;SDS011;30172;48.832;8.732;2023-03-14T14:28:44;2.60;;;1.00;;
15944;SDS011;30172;48.832;8.732;2023-03-14T14:33:43;1.23;;;0.90;;
15944;SDS011;30172;48.832;8.732;2023-03-14T14:41:34;2.87;;;1.30;;
15944;SDS011;30172;48.832;8.732;2023-03-14T14:44:01;3.70;;;1.10;;
15944;SDS011;30172;48.832;8.732;2023-03-14T14:46:29;1.90;;;0.90;;
15944;SDS011;30172;48.832;8.732;2023-03-14T14:48:56;2.00;;;1.10;;
15944;SDS011;30172;48.832;8.732;2023-03-14T14:51:27;3.53;;;1.23;;
15944;SDS011;30172;48.832;8.732;2023-03-14T14:54:03;2.30;;;1.40;;
15944;SDS011;30172;48.832;8.732;2023-03-14T14:56:35;5.47;;;1.20;;
15944;SDS011;30172;48.832;8.732;2023-03-14T14:59:02;3.20;;;1.77;;
15944;SDS011;30172;48.832;8.732;2023-03-14T15:01:33;1.90;;;1.00;;
15944;SDS011;30172;48.832;8.732;2023-03-14T15:04:04;3.60;;;1.13;;
15944;SDS011;30172;48.832;8.732;2023-03-14T15:06:36;2.30;;;1.23;;
15944;SDS011;30172;48.832;8.732;2023-03-14T15:09:01;3.43;;;1.27;;
15944;SDS011;30172;48.832;8.732;2023-03-14T15:11:26;11.73;;;4.37;;
15944;SDS011;30172;48.832;8.732;2023-03-14T15:13:52;10.67;;;5.77;;
15944;SDS011;30172;48.832;8.732;2023-03-14T15:16:18;8.00;;;4.67;;
15944;SDS011;30172;48.832;8.732;2023-03-14T15:18:47;8.33;;;2.00;;
15944;SDS011;30172;48.832;8.732;2023-03-14T15:21:15;4.83;;;1.67;;
15944;SDS011;30172;48.832;8.732;2023-03-14T15:23:40;3.03;;;1.20;;
15944;SDS011;30172;48.832;8.732;2023-03-14T15:26:16;4.60;;;1.30;;
15944;SDS011;30172;48.832;8.732;2023-03-14T15:28:43;5.37;;;1.40;;
15944;SDS011;30172;48.832;8.732;2023-03-14T15:31:09;2.80;;;1.20;;
15944;SDS011;30172;48.832;8.732;2023-03-14T15:33:35;3.57;;;1.17;;
15944;SDS011;30172;48.832;8.732;2023-03-14T15:36:01;3.53;;;1.00;;
15944;SDS011;30172;48.832;8.732;2023-03-14T15:38:26;4.27;;;1.20;;
15944;SDS011;30172;48.832;8.732;2023-03-14T15:40:51;1.87;;;1.23;;
15944;SDS011;30172;48.832;8.732;2023-03-14T15:43:17;3.30;;;1.17;;
15944;SDS011;30172;48.832;8.732;2023-03-14T15:45:43;2.93;;;1.40;;
15944;SDS011;30172;48.832;8.732;2023-03-14T15:48:18;2.53;;;1.20;;
15944;SDS011;30172;48.832;8.732;2023-03-14T15:50:46;2.20;;;1.10;;
15944;SDS011;30172;48.832;8.732;2023-03-14T15:53:12;2.97;;;1.20;;
15944;SDS011;30172;48.832;8.732;2023-03-14T15:55:37;1.90;;;1.10;;
15944;SDS011;30172;48.832;8.732;2023-03-14T15:58:03;3.00;;;0.97;;
15944;SDS011;30172;48.832;8.732;2023-03-14T16:00:29;5.87;;;1.17;;
15944;SDS011;30172;48.832;8.732;2023-03-14T16:02:55;5.17;;;1.27;;
15944;SDS011;30172;48.832;8.732;2023-03-14T16:05:39;3.27;;;1.20;;
15944;SDS011;30172;48.832;8.732;2023-03-14T16:08:05;4.67;;;1.23;;
15944;SDS011;30172;48.832;8.732;2023-03-14T16:10:30;2.80;;;1.47;;
15944;SDS011;30172;48.832;8.732;2023-03-14T16:12:56;4.70;;;1.27;;
15944;SDS011;30172;48.832;8.732;2023-03-14T16:15:22;5.60;;;1.07;;
15944;SDS011;30172;48.832;8.732;2023-03-14T16:17:47;2.53;;;1.30;;
15944;SDS011;30172;48.832;8.732;2023-03-14T16:20:13;3.93;;;1.10;;
15944;SDS011;30172;48.832;8.732;2023-03-14T16:22:39;3.70;;;1.47;;
15944;SDS011;30172;48.832;8.732;2023-03-14T16:25:05;4.63;;;1.80;;
15944;SDS011;30172;48.832;8.732;2023-03-14T16:27:31;3.67;;;1.10;;
15944;SDS011;30172;48.832;8.732;2023-03-14T16:29:59;4.83;;;2.10;;
15944;SDS011;30172;48.832;8.732;2023-03-14T16:32:25;10.10;;;4.67;;
15944;SDS011;30172;48.832;8.732;2023-03-14T16:34:54;19.60;;;11.17;;
15944;SDS011;30172;48.832;8.732;2023-03-14T16:37:19;6.43;;;3.47;;
15944;SDS011;30172;48.832;8.732;2023-03-14T16:39:46;16.70;;;8.27;;
15944;SDS011;30172;48.832;8.732;2023-03-14T16:42:13;15.37;;;8.27;;
15944;SDS011;30172;48.832;8.732;2023-03-14T16:44:38;16.47;;;10.80;;
15944;SDS011;30172;48.832;8.732;2023-03-14T16:47:03;35.20;;;22.63;;
15944;SDS011;30172;48.832;8.732;2023-03-14T16:49:29;17.80;;;9.47;;
15944;SDS011;30172;48.832;8.732;2023-03-14T16:51:54;11.40;;;6.67;;
15944;SDS011;30172;48.832;8.732;2023-03-14T16:54:19;16.30;;;10.30;;
15944;SDS011;30172;48.832;8.732;2023-03-14T16:56:45;26.83;;;14.97;;
15944;SDS011;30172;48.832;8.732;2023-03-14T16:59:12;5.00;;;2.43;;
15944;SDS011;30172;48.832;8.732;2023-03-14T17:01:37;12.30;;;4.73;;
15944;SDS011;30172;48.832;8.732;2023-03-14T17:04:04;18.17;;;10.60;;
15944;SDS011;30172;48.832;8.732;2023-03-14T17:06:33;18.80;;;9.17;;
15944;SDS011;30172;48.832;8.732;2023-03-14T17:08:58;31.60;;;14.57;;
15944;SDS011;30172;48.832;8.732;2023-03-14T17:11:24;20.77;;;10.33;;
15944;SDS011;30172;48.832;8.732;2023-03-14T17:13:49;16.27;;;8.20;;
15944;SDS011;30172;48.832;8.732;2023-03-14T17:16:14;21.23;;;10.90;;
15944;SDS011;30172;48.832;8.732;2023-03-14T17:18:40;10.13;;;3.10;;
15944;SDS011;30172;48.832;8.732;2023-03-14T17:21:05;7.40;;;2.00;;
15944;SDS011;30172;48.832;8.732;2023-03-14T17:23:44;4.27;;;2.30;;
15944;SDS011;30172;48.832;8.732;2023-03-14T17:26:09;5.13;;;1.80;;
15944;SDS011;30172;48.832;8.732;2023-03-14T17:28:36;3.47;;;1.40;;
15944;SDS011;30172;48.832;8.732;2023-03-14T17:31:03;7.63;;;1.80;;
15944;SDS011;30172;48.832;8.732;2023-03-14T17:33:30;4.83;;;2.40;;
15944;SDS011;30172;48.832;8.732;2023-03-14T17:35:55;4.50;;;1.40;;
15944;SDS011;30172;48.832;8.732;2023-03-14T17:38:21;3.57;;;1.97;;
15944;SDS011;30172;48.832;8.732;2023-03-14T17:40:49;5.20;;;1.70;;
15944;SDS011;30172;48.832;8.732;2023-03-14T17:43:17;7.20;;;2.03;;
15944;SDS011;30172;48.832;8.732;2023-03-14T17:45:45;4.07;;;1.90;;
15944;SDS011;30172;48.832;8.732;2023-03-14T17:48:11;4.13;;;1.90;;
15944;SDS011;30172;48.832;8.732;2023-03-14T17:50:39;6.40;;;1.50;;
15944;SDS011;30172;48.832;8.732;2023-03-14T17:53:50;4.70;;;1.10;;
15944;SDS011;30172;48.832;8.732;2023-03-14T18:22:10;2.77;;;1.10;;
15944;SDS011;30172;48.832;8.732;2023-03-14T18:27:50;7.17;;;1.27;;
15944;SDS011;30172;48.832;8.732;2023-03-14T18:30:59;2.97;;;1.57;;
15944;SDS011;30172;48.832;8.732;2023-03-14T18:33:49;3.50;;;1.20;;
15944;SDS011;30172;48.832;8.732;2023-03-14T18:36:42;8.20;;;2.83;;
15944;SDS011;30172;48.832;8.732;2023-03-14T18:39:27;5.17;;;2.30;;
15944;SDS011;30172;48.832;8.732;2023-03-14T18:42:14;8.20;;;2.10;;
15944;SDS011;30172;48.832;8.732;2023-03-14T18:48:07;2.43;;;1.33;;
15944;SDS011;30172;48.832;8.732;2023-03-14T18:50:50;3.27;;;1.10;;
15944;SDS011;30172;48.832;8.732;2023-03-14T18:53:16;1.93;;;1.10;;
15944;SDS011;30172;48.832;8.732;2023-03-14T18:55:41;6.97;;;1.40;;
15944;SDS011;30172;48.832;8.732;2023-03-14T18:58:07;1.60;;;0.73;;
15944;SDS011;30172;48.832;8.732;2023-03-14T19:00:32;4.23;;;1.30;;
15944;SDS011;30172;48.832;8.732;2023-03-14T19:02:58;3.13;;;1.13;;
15944;SDS011;30172;48.832;8.732;2023-03-14T19:05:23;5.03;;;1.20;;
15944;SDS011;30172;48.832;8.732;2023-03-14T19:07:48;4.83;;;1.73;;
15944;SDS011;30172;48.832;8.732;2023-03-14T19:10:14;4.23;;;1.77;;
15944;SDS011;30172;48.832;8.732;2023-03-14T19:12:39;3.37;;;1.17;;
15944;SDS011;30172;48.832;8.732;2023-03-14T19:15:04;3.83;;;1.20;;
15944;SDS011;30172;48.832;8.732;2023-03-14T19:17:31;3.67;;;1.17;;
15944;SDS011;30172;48.832;8.732;2023-03-14T19:19:57;2.17;;;1.57;;
15944;SDS011;30172;48.832;8.732;2023-03-14T19:22:22;4.07;;;2.00;;
15944;SDS011;30172;48.832;8.732;2023-03-14T19:24:48;4.47;;;1.90;;
15944;SDS011;30172;48.832;8.732;2023-03-14T19:27:13;3.77;;;2.30;;
15944;SDS011;30172;48.832;8.732;2023-03-14T19:29:38;2.33;;;1.50;;
15944;SDS011;30172;48.832;8.732;2023-03-14T19:32:06;9.20;;;6.20;;
15944;SDS011;30172;48.832;8.732;2023-03-14T19:34:35;5.63;;;4.10;;
15944;SDS011;30172;48.832;8.732;2023-03-14T19:37:00;1.23;;;1.03;;
15944;SDS011;30172;48.832;8.732;2023-03-14T19:39:27;3.77;;;1.43;;
15944;SDS011;30172;48.832;8.732;2023-03-14T19:41:52;3.80;;;1.90;;
15944;SDS011;30172;48.832;8.732;2023-03-14T19:44:22;1.67;;;1.47;;
15944;SDS011;30172;48.832;8.732;2023-03-14T19:46:48;3.67;;;1.73;;
15944;SDS011;30172;48.832;8.732;2023-03-14T19:49:13;6.03;;;2.53;;
15944;SDS011;30172;48.832;8.732;2023-03-14T19:51:39;5.10;;;2.03;;
15944;SDS011;30172;48.832;8.732;2023-03-14T19:54:05;5.97;;;2.30;;
15944;SDS011;30172;48.832;8.732;2023-03-14T19:56:31;3.73;;;1.90;;
15944;SDS011;30172;48.832;8.732;2023-03-14T19:58:57;5.60;;;1.60;;
15944;SDS011;30172;48.832;8.732;2023-03-14T20:01:23;4.90;;;2.40;;
15944;SDS011;30172;48.832;8.732;2023-03-14T20:03:51;5.57;;;2.77;;
15944;SDS011;30172;48.832;8.732;2023-03-14T20:06:18;5.77;;;1.87;;
15944;SDS011;30172;48.832;8.732;2023-03-14T20:08:45;4.73;;;2.23;;
15944;SDS011;30172;48.832;8.732;2023-03-14T20:11:13;4.30;;;1.93;;
15944;SDS011;30172;48.832;8.732;2023-03-14T20:13:39;8.20;;;2.60;;
15944;SDS011;30172;48.832;8.732;2023-03-14T20:16:09;6.47;;;2.90;;
15944;SDS011;30172;48.832;8.732;2023-03-14T20:18:35;7.20;;;3.83;;
15944;SDS011;30172;48.832;8.732;2023-03-14T20:21:07;10.13;;;4.53;;
15944;SDS011;30172;48.832;8.732;2023-03-14T20:23:33;3.63;;;1.97;;
15944;SDS011;30172;48.832;8.732;2023-03-14T20:26:00;6.33;;;2.20;;
15944;SDS011;30172;48.832;8.732;2023-03-14T20:28:26;5.80;;;1.80;;
15944;SDS011;30172;48.832;8.732;2023-03-14T20:30:54;5.20;;;2.13;;
15944;SDS011;30172;48.832;8.732;2023-03-14T20:33:23;4.27;;;1.77;;
15944;SDS011;30172;48.832;8.732;2023-03-14T20:35:53;4.40;;;2.00;;
15944;SDS011;30172;48.832;8.732;2023-03-14T20:38:20;5.27;;;1.90;;
15944;SDS011;30172;48.832;8.732;2023-03-14T20:40:45;4.93;;;1.60;;
15944;SDS011;30172;48.832;8.732;2023-03-14T20:43:10;3.60;;;1.60;;
15944;SDS011;30172;48.832;8.732;2023-03-14T20:45:37;2.47;;;1.40;;
15944;SDS011;30172;48.832;8.732;2023-03-14T20:48:02;3.67;;;1.67;;
15944;SDS011;30172;48.832;8.732;2023-03-14T20:50:28;3.03;;;1.60;;
15944;SDS011;30172;48.832;8.732;2023-03-14T20:52:56;5.53;;;2.93;;
15944;SDS011;30172;48.832;8.732;2023-03-14T20:55:21;4.20;;;1.90;;
15944;SDS011;30172;48.832;8.732;2023-03-14T20:57:47;4.23;;;2.03;;
15944;SDS011;30172;48.832;8.732;2023-03-14T21:00:12;4.33;;;1.80;;
15944;SDS011;30172;48.832;8.732;2023-03-14T21:02:42;6.60;;;2.83;;
15944;SDS011;30172;48.832;8.732;2023-03-14T21:05:07;5.57;;;2.20;;
15944;SDS011;30172;48.832;8.732;2023-03-14T21:07:35;4.07;;;1.53;;
15944;SDS011;30172;48.832;8.732;2023-03-14T21:10:06;5.40;;;2.20;;
15944;SDS011;30172;48.832;8.732;2023-03-14T21:12:33;3.77;;;2.17;;
15944;SDS011;30172;48.832;8.732;2023-03-14T21:14:58;3.37;;;2.07;;
15944;SDS011;30172;48.832;8.732;2023-03-14T21:17:23;5.03;;;2.33;;
15944;SDS011;30172;48.832;8.732;2023-03-14T21:19:48;3.57;;;1.30;;
15944;SDS011;30172;48.832;8.732;2023-03-14T21:22:22;3.30;;;1.30;;
15944;SDS011;30172;48.832;8.732;2023-03-14T21:24:49;3.63;;;1.83;;
15944;SDS011;30172;48.832;8.732;2023-03-14T21:27:14;2.87;;;2.07;;
15944;SDS011;30172;48.832;8.732;2023-03-14T21:29:40;5.50;;;1.87;;
15944;SDS011;30172;48.832;8.732;2023-03-14T21:32:05;5.60;;;2.30;;
15944;SDS011;30172;48.832;8.732;2023-03-14T21:34:31;3.80;;;2.57;;
15944;SDS011;30172;48.832;8.732;2023-03-14T21:40:53;3.00;;;1.97;;
15944;SDS011;30172;48.832;8.732;2023-03-14T21:56:49;4.33;;;2.33;;
15944;SDS011;30172;48.832;8.732;2023-03-14T21:59:45;1.70;;;1.40;;
15944;SDS011;30172;48.832;8.732;2023-03-14T22:02:14;0.60;;;0.60;;
15944;SDS011;30172;48.832;8.732;2023-03-14T22:04:49;1.93;;;0.80;;
